Due to severe server failure at the provider, not all demo sites are operational. Will take some days to rebuilt everything.

Demonstration site - Click on the  for more information

This is an optional block. Switch it on/off in your settings-file: $SITE['bannerTop'] = false; or $SITE['bannerBottom'] = false;

You can display ads, any other important text or photo’s using text / html or PHP code.

You can place one or more at the top and or bottom and it can all be different for content / size .



Visit our other weather sites:

Template documentation
and downloads

And another site



Nearby METAR Reports

   
EBAW - Antwerp
Updated: 12-12-2018 13:20
Clear  
Clear  
   Wind: ESE 7.4 km/h
Wind: ESE 7.4 km/h
Temperature: 4°C
Wind Chill: 2°C
Dew Point: 2°C
Humidity: 87%
Barometer: 1025 hPa
Visibility: More than 10 km
Cloud details: Clear ft
EBAW 121220Z 11004KT 090V150 CAVOK 04/02 Q1025 NOSIG
EBLG - Liège
Updated: 12-12-2018 13:20
Mist, Mostly Cloudy  
Mist, Mostly Cloudy  
   Wind: East 7.4 km/h
Wind: East 7.4 km/h
Temperature: 2°C
Wind Chill: 0°C
Dew Point: 1°C
Humidity: 93%
Barometer: 1024 hPa
Clouds: Mostly Cloudy
Visibility: 2 km
Cloud details: Partly Cloudy 300 ft,
Mostly Cloudy 500 ft
EBLG 121220Z 10004KT 1500 R22L/P2000N R22R/1900N R04R/1400N BR SCT003 BKN005 02/01 Q1024 BECMG 3500 BR SCT005
EBCV - Mons/Bergen
Updated: 12-12-2018 13:25
Clear  
Clear  
   Wind: East 7.4 km/h
Wind: East 7.4 km/h
Temperature: 6°C
Wind Chill: 4°C
Dew Point: 2°C
Humidity: 76%
Barometer: 1024 hPa
Clouds: Clear
Visibility: More than 10 km
Cloud details: Clear ft
EBCV 121225Z AUTO 09004KT 9999 NCD 06/02 Q1024 BLU
EHBK - Maastricht
Updated: 12-12-2018 13:25
Mist, Mostly Cloudy  
Mist, Mostly Cloudy  
   Wind: NE 9.3 km/h
Wind: NE 9.3 km/h
Temperature: 3°C
Wind Chill: 1°C
Dew Point: 3°C
Humidity: 100%
Barometer: 1024 hPa
Clouds: Mostly Cloudy
Visibility: 3 km
Cloud details: Partly Cloudy 200 ft,
Mostly Cloudy 300 ft,
Mostly Cloudy 500 ft
EHBK 121225Z AUTO 05005KT 020V080 2600 BR SCT002 BKN003 BKN005 03/03 Q1024 BECMG 9999 NSW
ELLX - Luxemburg
Updated: 12-12-2018 13:20
Few Clouds  
Few Clouds  
   Wind: NE 14.8 km/h
Wind: NE 14.8 km/h
Temperature: 4°C
Wind Chill: 1°C
Dew Point: 0°C
Humidity: 75%
Barometer: 1022 hPa
Clouds: Few Clouds
Visibility: More than 10 km
Cloud details: Few Clouds 1100 ft
ELLX 121220Z 05008KT 9999 FEW011 04/M00 Q1022 NOSIG
EBOS - Oostende
Updated: 12-12-2018 13:20
Few Clouds  
Few Clouds  
   Wind: East 14.8 km/h
Wind: East 14.8 km/h
Temperature: 6°C
Wind Chill: 3°C
Dew Point: 2°C
Humidity: 76%
Barometer: 1025 hPa
Clouds: Few Clouds
Visibility: More than 10 km
Cloud details: Few Clouds 2000 ft
EBOS 121220Z 10008KT 9999 FEW020 06/02 Q1025 NOSIG

Script developed by  Saratoga-weather.org Adapted for the template by  Weerstation Leuven

This is an optional block. Switch it on/off in your settings-file: $SITE['bannerTop'] = false; or $SITE['bannerBottom'] = false;

You can display ads, any other important text or photo’s using text / html or PHP code.

You can place one or more at the top and or bottom and it can all be different for content / size .